Gordon, WV (25093)

9:51 PM EDT on October 22, 2014 (GMT -0400)
APRSWXNET Comfort WV US | Change Station
CLOSE
Current Station
Personal Weather Station
Location: Bloomingrose, WV
Elevation: 692 ft
Nearby Weather Stations

Elev 692 ft 38.13 °N, 81.63 °W | Updated 44 minutes ago

Overcast
Overcast
49 °F
Feels Like 49 °F
N
0
Wind Variable Wind from NNE
Gusts 4.0 mph

Today
High -- | Low -- °F
--% Chance of Precip.
Yesterday
High -- | Low -- °F
Precip. -- in
7:42 AM 6:39 PM
Waning Crescent, 1% visible
Pressure 30.22 in
Visibility 10.0 miles
Clouds Overcast 2400 ft
Windchill 49 °F
Dew Point 46 °F
Humidity 91%
Rainfall 0.12 in
Snow Depth Not available.
UV 0 out of 12
Pollen .40 out of 12
Air Quality Not available.
Flu Activity Sporadic
METAR KCRW 230054Z 31006KT 10SM OVC024 09/07 A3022 RMK AO2 SLP234 T00940067

More Conditions Fewer Conditions

Pressure 30.22 in
Visibility 10.0 miles
Clouds Overcast 2400 ft
Windchill 49 °F
Dew Point 46 °F
Humidity 91%
Rainfall 0.12 in
Snow Depth Not available.
UV 0 out of 12
Pollen .40 out of 12
Air Quality Not available.
Flu Activity Sporadic
METAR KCRW 230054Z 31006KT 10SM OVC024 09/07 A3022 RMK AO2 SLP234 T00940067

More Conditions Fewer Conditions

10-Day Weather Forecast

Almanac

Astronomy

Oct. 22, 2014 Rise Set
Actual Time 7:42 AM EDT 6:39 PM EDT
Civil Twilight 7:15 AM EDT 7:06 PM EDT
Nautical Twilight 6:44 AM EDT 7:37 PM EDT
Astronomical Twilight 6:14 AM EDT 8:07 PM EDT
Moon 6:23 AM EDT (10/22) 6:04 PM EDT (10/22)
Length of Visible Light 11h 51m
Length of Day
10h 57m
Tomorrow will be 2m 17s shorter.
Waning Crescent, 1% of the Moon is Illuminated
Today
Waning Crescent
Oct 23
New
Oct 30
First Quarter
Nov 6
Full
Nov 14
Last Quarter

Today's Extremes

State Highs State Lows

Community

WunderPhotos

Upload Photos

1,764,108 photos uploaded!

Nearby

Snow Depth

Station Depth Elevation
No new snow has been reported.

Earthquake Activity

City Distance Mag. Time & Date
No recent earthquake activity has been reported nearby.
Minimum magnitude displayed is 2.5.

Coastal Water Temperatures

Place Temperature
No Stations Reporting

Nearby Weather Stations